sensor_id;sensor_type;location;lat;lon;timestamp;P1;durP1;ratioP1;P2;durP2;ratioP2
16975;SDS011;8604;48.148;-1.786;2023-07-16T00:00:52;23.07;;;9.93;;
16975;SDS011;8604;48.148;-1.786;2023-07-16T00:03:21;21.80;;;9.30;;
16975;SDS011;8604;48.148;-1.786;2023-07-16T00:05:50;24.57;;;10.03;;
16975;SDS011;8604;48.148;-1.786;2023-07-16T00:08:18;23.47;;;9.37;;
16975;SDS011;8604;48.148;-1.786;2023-07-16T00:10:46;20.87;;;9.70;;
16975;SDS011;8604;48.148;-1.786;2023-07-16T00:13:14;26.50;;;10.37;;
16975;SDS011;8604;48.148;-1.786;2023-07-16T00:15:43;21.13;;;9.03;;
16975;SDS011;8604;48.148;-1.786;2023-07-16T00:18:11;22.60;;;9.77;;
16975;SDS011;8604;48.148;-1.786;2023-07-16T00:20:41;19.67;;;9.53;;
16975;SDS011;8604;48.148;-1.786;2023-07-16T00:23:09;20.80;;;10.00;;
16975;SDS011;8604;48.148;-1.786;2023-07-16T00:25:38;24.50;;;9.73;;
16975;SDS011;8604;48.148;-1.786;2023-07-16T00:28:06;23.83;;;10.47;;
16975;SDS011;8604;48.148;-1.786;2023-07-16T00:30:34;21.93;;;9.53;;
16975;SDS011;8604;48.148;-1.786;2023-07-16T00:33:03;22.83;;;10.23;;
16975;SDS011;8604;48.148;-1.786;2023-07-16T00:35:31;22.87;;;9.90;;
16975;SDS011;8604;48.148;-1.786;2023-07-16T00:38:01;25.53;;;10.20;;
16975;SDS011;8604;48.148;-1.786;2023-07-16T00:40:29;23.33;;;10.10;;
16975;SDS011;8604;48.148;-1.786;2023-07-16T00:42:57;27.47;;;10.23;;
16975;SDS011;8604;48.148;-1.786;2023-07-16T00:45:25;25.87;;;10.37;;
16975;SDS011;8604;48.148;-1.786;2023-07-16T00:47:54;23.90;;;9.90;;
16975;SDS011;8604;48.148;-1.786;2023-07-16T00:50:23;21.30;;;9.87;;
16975;SDS011;8604;48.148;-1.786;2023-07-16T00:52:51;25.17;;;10.90;;
16975;SDS011;8604;48.148;-1.786;2023-07-16T00:55:21;25.63;;;10.27;;
16975;SDS011;8604;48.148;-1.786;2023-07-16T00:57:49;27.27;;;10.47;;
16975;SDS011;8604;48.148;-1.786;2023-07-16T01:00:18;27.27;;;10.10;;
16975;SDS011;8604;48.148;-1.786;2023-07-16T01:02:46;22.13;;;9.73;;
16975;SDS011;8604;48.148;-1.786;2023-07-16T01:05:16;23.60;;;10.33;;
16975;SDS011;8604;48.148;-1.786;2023-07-16T01:07:46;22.33;;;10.30;;
16975;SDS011;8604;48.148;-1.786;2023-07-16T01:10:24;26.90;;;9.93;;
16975;SDS011;8604;48.148;-1.786;2023-07-16T01:12:54;24.57;;;10.77;;
16975;SDS011;8604;48.148;-1.786;2023-07-16T01:15:23;30.20;;;11.13;;
16975;SDS011;8604;48.148;-1.786;2023-07-16T01:17:52;23.87;;;10.67;;
16975;SDS011;8604;48.148;-1.786;2023-07-16T01:20:19;27.10;;;11.47;;
16975;SDS011;8604;48.148;-1.786;2023-07-16T01:22:52;28.20;;;10.87;;
16975;SDS011;8604;48.148;-1.786;2023-07-16T01:25:53;22.20;;;11.10;;
16975;SDS011;8604;48.148;-1.786;2023-07-16T01:28:50;23.40;;;10.20;;
16975;SDS011;8604;48.148;-1.786;2023-07-16T01:31:33;27.77;;;10.57;;
16975;SDS011;8604;48.148;-1.786;2023-07-16T01:34:02;23.57;;;10.87;;
16975;SDS011;8604;48.148;-1.786;2023-07-16T01:36:32;24.73;;;10.77;;
16975;SDS011;8604;48.148;-1.786;2023-07-16T01:39:02;21.77;;;10.37;;
16975;SDS011;8604;48.148;-1.786;2023-07-16T01:41:30;23.97;;;11.07;;
16975;SDS011;8604;48.148;-1.786;2023-07-16T01:43:59;21.43;;;10.87;;
16975;SDS011;8604;48.148;-1.786;2023-07-16T01:46:28;22.23;;;11.33;;
16975;SDS011;8604;48.148;-1.786;2023-07-16T01:48:57;23.40;;;10.57;;
16975;SDS011;8604;48.148;-1.786;2023-07-16T01:51:25;22.37;;;10.80;;
16975;SDS011;8604;48.148;-1.786;2023-07-16T01:53:53;27.27;;;11.07;;
16975;SDS011;8604;48.148;-1.786;2023-07-16T01:56:23;23.53;;;10.80;;
16975;SDS011;8604;48.148;-1.786;2023-07-16T01:58:51;23.90;;;10.57;;
16975;SDS011;8604;48.148;-1.786;2023-07-16T02:01:19;26.73;;;10.90;;
16975;SDS011;8604;48.148;-1.786;2023-07-16T02:03:50;24.27;;;10.60;;
16975;SDS011;8604;48.148;-1.786;2023-07-16T02:06:18;24.13;;;10.20;;
16975;SDS011;8604;48.148;-1.786;2023-07-16T02:08:47;24.37;;;9.90;;
16975;SDS011;8604;48.148;-1.786;2023-07-16T02:11:16;27.23;;;11.00;;
16975;SDS011;8604;48.148;-1.786;2023-07-16T02:13:47;26.57;;;11.63;;
16975;SDS011;8604;48.148;-1.786;2023-07-16T02:16:15;21.77;;;10.17;;
16975;SDS011;8604;48.148;-1.786;2023-07-16T02:18:44;27.80;;;11.20;;
16975;SDS011;8604;48.148;-1.786;2023-07-16T02:21:14;20.37;;;10.17;;
16975;SDS011;8604;48.148;-1.786;2023-07-16T02:23:42;23.33;;;10.63;;
16975;SDS011;8604;48.148;-1.786;2023-07-16T02:26:10;24.10;;;10.33;;
16975;SDS011;8604;48.148;-1.786;2023-07-16T02:28:41;23.20;;;10.97;;
16975;SDS011;8604;48.148;-1.786;2023-07-16T02:31:10;22.63;;;10.83;;
16975;SDS011;8604;48.148;-1.786;2023-07-16T02:33:40;25.13;;;10.87;;
16975;SDS011;8604;48.148;-1.786;2023-07-16T02:36:08;21.93;;;10.90;;
16975;SDS011;8604;48.148;-1.786;2023-07-16T02:38:37;24.33;;;11.37;;
16975;SDS011;8604;48.148;-1.786;2023-07-16T02:41:06;24.80;;;10.70;;
16975;SDS011;8604;48.148;-1.786;2023-07-16T02:43:35;22.30;;;10.50;;
16975;SDS011;8604;48.148;-1.786;2023-07-16T02:46:03;29.53;;;11.80;;
16975;SDS011;8604;48.148;-1.786;2023-07-16T02:48:31;30.37;;;12.20;;
16975;SDS011;8604;48.148;-1.786;2023-07-16T02:51:01;23.13;;;10.50;;
16975;SDS011;8604;48.148;-1.786;2023-07-16T02:53:29;24.03;;;10.77;;
16975;SDS011;8604;48.148;-1.786;2023-07-16T02:55:59;24.17;;;11.03;;
16975;SDS011;8604;48.148;-1.786;2023-07-16T02:58:27;26.33;;;11.17;;
16975;SDS011;8604;48.148;-1.786;2023-07-16T03:00:56;30.40;;;12.43;;
16975;SDS011;8604;48.148;-1.786;2023-07-16T03:03:24;23.47;;;10.83;;
16975;SDS011;8604;48.148;-1.786;2023-07-16T03:06:01;20.67;;;11.47;;
16975;SDS011;8604;48.148;-1.786;2023-07-16T03:08:29;28.53;;;10.83;;
16975;SDS011;8604;48.148;-1.786;2023-07-16T03:10:59;26.37;;;11.80;;
16975;SDS011;8604;48.148;-1.786;2023-07-16T03:13:28;21.73;;;11.43;;
16975;SDS011;8604;48.148;-1.786;2023-07-16T03:15:56;23.57;;;12.27;;
16975;SDS011;8604;48.148;-1.786;2023-07-16T03:18:27;25.77;;;11.73;;
16975;SDS011;8604;48.148;-1.786;2023-07-16T03:20:56;25.23;;;11.23;;
16975;SDS011;8604;48.148;-1.786;2023-07-16T03:23:26;22.90;;;10.93;;
16975;SDS011;8604;48.148;-1.786;2023-07-16T03:25:54;29.33;;;12.00;;
16975;SDS011;8604;48.148;-1.786;2023-07-16T03:28:24;22.83;;;11.43;;
16975;SDS011;8604;48.148;-1.786;2023-07-16T03:30:52;27.57;;;12.87;;
16975;SDS011;8604;48.148;-1.786;2023-07-16T03:33:21;23.90;;;11.87;;
16975;SDS011;8604;48.148;-1.786;2023-07-16T03:35:49;22.47;;;12.87;;
16975;SDS011;8604;48.148;-1.786;2023-07-16T03:38:18;24.53;;;12.03;;
16975;SDS011;8604;48.148;-1.786;2023-07-16T03:40:48;28.10;;;12.97;;
16975;SDS011;8604;48.148;-1.786;2023-07-16T03:43:17;25.50;;;12.27;;
16975;SDS011;8604;48.148;-1.786;2023-07-16T03:45:48;28.33;;;12.70;;
16975;SDS011;8604;48.148;-1.786;2023-07-16T03:48:17;23.17;;;11.93;;
16975;SDS011;8604;48.148;-1.786;2023-07-16T03:50:46;24.77;;;11.70;;
16975;SDS011;8604;48.148;-1.786;2023-07-16T03:53:14;25.07;;;12.47;;
16975;SDS011;8604;48.148;-1.786;2023-07-16T03:55:42;27.03;;;12.47;;
16975;SDS011;8604;48.148;-1.786;2023-07-16T03:58:11;29.67;;;13.70;;
16975;SDS011;8604;48.148;-1.786;2023-07-16T04:00:40;28.80;;;12.93;;
16975;SDS011;8604;48.148;-1.786;2023-07-16T04:03:12;27.87;;;12.57;;
16975;SDS011;8604;48.148;-1.786;2023-07-16T04:05:40;25.80;;;12.47;;
16975;SDS011;8604;48.148;-1.786;2023-07-16T04:08:08;26.00;;;13.50;;
16975;SDS011;8604;48.148;-1.786;2023-07-16T04:10:37;26.23;;;12.30;;
16975;SDS011;8604;48.148;-1.786;2023-07-16T04:13:05;26.30;;;12.70;;
16975;SDS011;8604;48.148;-1.786;2023-07-16T04:15:33;26.23;;;12.90;;
16975;SDS011;8604;48.148;-1.786;2023-07-16T04:18:02;24.00;;;12.60;;
16975;SDS011;8604;48.148;-1.786;2023-07-16T04:20:32;25.23;;;12.40;;
16975;SDS011;8604;48.148;-1.786;2023-07-16T04:23:00;22.63;;;12.33;;
16975;SDS011;8604;48.148;-1.786;2023-07-16T04:25:29;26.07;;;12.73;;
16975;SDS011;8604;48.148;-1.786;2023-07-16T04:27:57;25.90;;;13.23;;
16975;SDS011;8604;48.148;-1.786;2023-07-16T04:30:26;27.17;;;12.90;;
16975;SDS011;8604;48.148;-1.786;2023-07-16T04:32:54;24.73;;;12.43;;
16975;SDS011;8604;48.148;-1.786;2023-07-16T04:35:22;25.03;;;13.07;;
16975;SDS011;8604;48.148;-1.786;2023-07-16T04:37:52;23.93;;;12.33;;
16975;SDS011;8604;48.148;-1.786;2023-07-16T04:40:20;23.13;;;12.33;;
16975;SDS011;8604;48.148;-1.786;2023-07-16T04:42:48;24.13;;;12.50;;
16975;SDS011;8604;48.148;-1.786;2023-07-16T04:45:16;26.90;;;12.47;;
16975;SDS011;8604;48.148;-1.786;2023-07-16T04:47:45;22.87;;;11.53;;
16975;SDS011;8604;48.148;-1.786;2023-07-16T04:50:13;24.23;;;12.23;;
16975;SDS011;8604;48.148;-1.786;2023-07-16T04:52:42;27.27;;;12.57;;
16975;SDS011;8604;48.148;-1.786;2023-07-16T04:55:11;24.17;;;13.03;;
16975;SDS011;8604;48.148;-1.786;2023-07-16T04:57:40;23.63;;;11.87;;
16975;SDS011;8604;48.148;-1.786;2023-07-16T05:00:08;23.63;;;12.93;;
16975;SDS011;8604;48.148;-1.786;2023-07-16T05:02:38;23.63;;;12.83;;
16975;SDS011;8604;48.148;-1.786;2023-07-16T05:05:06;28.50;;;13.67;;
16975;SDS011;8604;48.148;-1.786;2023-07-16T05:07:35;28.50;;;12.67;;
16975;SDS011;8604;48.148;-1.786;2023-07-16T05:10:04;25.30;;;12.87;;
16975;SDS011;8604;48.148;-1.786;2023-07-16T05:12:34;29.30;;;13.27;;
16975;SDS011;8604;48.148;-1.786;2023-07-16T05:15:02;27.77;;;13.50;;
16975;SDS011;8604;48.148;-1.786;2023-07-16T05:17:31;26.50;;;12.83;;
16975;SDS011;8604;48.148;-1.786;2023-07-16T05:20:00;26.50;;;13.10;;
16975;SDS011;8604;48.148;-1.786;2023-07-16T05:22:28;23.23;;;13.03;;
16975;SDS011;8604;48.148;-1.786;2023-07-16T05:24:56;29.40;;;12.90;;
16975;SDS011;8604;48.148;-1.786;2023-07-16T05:27:24;23.67;;;12.93;;
16975;SDS011;8604;48.148;-1.786;2023-07-16T05:29:54;27.37;;;13.97;;
16975;SDS011;8604;48.148;-1.786;2023-07-16T05:32:23;27.07;;;13.07;;
16975;SDS011;8604;48.148;-1.786;2023-07-16T05:34:51;27.23;;;13.20;;
16975;SDS011;8604;48.148;-1.786;2023-07-16T05:37:20;24.30;;;13.07;;
16975;SDS011;8604;48.148;-1.786;2023-07-16T05:39:48;23.03;;;13.13;;
16975;SDS011;8604;48.148;-1.786;2023-07-16T05:42:16;24.30;;;13.27;;
16975;SDS011;8604;48.148;-1.786;2023-07-16T05:44:46;27.13;;;13.47;;
16975;SDS011;8604;48.148;-1.786;2023-07-16T05:47:16;28.13;;;12.73;;
16975;SDS011;8604;48.148;-1.786;2023-07-16T05:49:45;27.13;;;12.57;;
16975;SDS011;8604;48.148;-1.786;2023-07-16T05:52:13;24.60;;;12.83;;
16975;SDS011;8604;48.148;-1.786;2023-07-16T05:54:42;25.67;;;12.83;;
16975;SDS011;8604;48.148;-1.786;2023-07-16T05:57:11;26.17;;;13.43;;
16975;SDS011;8604;48.148;-1.786;2023-07-16T05:59:39;26.50;;;12.67;;
16975;SDS011;8604;48.148;-1.786;2023-07-16T06:02:07;25.10;;;12.33;;
16975;SDS011;8604;48.148;-1.786;2023-07-16T06:04:37;24.80;;;13.10;;
16975;SDS011;8604;48.148;-1.786;2023-07-16T06:07:06;23.17;;;12.97;;
16975;SDS011;8604;48.148;-1.786;2023-07-16T06:09:34;25.17;;;13.00;;
16975;SDS011;8604;48.148;-1.786;2023-07-16T06:12:03;24.77;;;12.60;;
16975;SDS011;8604;48.148;-1.786;2023-07-16T06:14:31;22.83;;;13.10;;
16975;SDS011;8604;48.148;-1.786;2023-07-16T06:17:00;22.57;;;12.20;;
16975;SDS011;8604;48.148;-1.786;2023-07-16T06:19:28;25.67;;;12.00;;
16975;SDS011;8604;48.148;-1.786;2023-07-16T06:21:58;25.27;;;12.30;;
16975;SDS011;8604;48.148;-1.786;2023-07-16T06:24:26;25.87;;;13.00;;
16975;SDS011;8604;48.148;-1.786;2023-07-16T06:26:54;25.83;;;13.33;;
16975;SDS011;8604;48.148;-1.786;2023-07-16T06:29:22;23.83;;;12.17;;
16975;SDS011;8604;48.148;-1.786;2023-07-16T06:31:54;23.60;;;12.60;;
16975;SDS011;8604;48.148;-1.786;2023-07-16T06:34:24;27.23;;;12.63;;
16975;SDS011;8604;48.148;-1.786;2023-07-16T06:36:52;26.10;;;12.43;;
16975;SDS011;8604;48.148;-1.786;2023-07-16T06:39:22;21.70;;;11.57;;
16975;SDS011;8604;48.148;-1.786;2023-07-16T06:41:50;29.13;;;12.30;;
16975;SDS011;8604;48.148;-1.786;2023-07-16T06:44:21;23.20;;;12.70;;
16975;SDS011;8604;48.148;-1.786;2023-07-16T06:46:49;22.27;;;11.97;;
16975;SDS011;8604;48.148;-1.786;2023-07-16T06:49:18;19.07;;;10.80;;
16975;SDS011;8604;48.148;-1.786;2023-07-16T06:51:46;21.30;;;10.87;;
16975;SDS011;8604;48.148;-1.786;2023-07-16T06:54:14;23.80;;;11.50;;
16975;SDS011;8604;48.148;-1.786;2023-07-16T06:56:44;22.97;;;11.70;;
16975;SDS011;8604;48.148;-1.786;2023-07-16T06:59:13;24.97;;;11.33;;
16975;SDS011;8604;48.148;-1.786;2023-07-16T07:01:41;21.53;;;11.10;;
16975;SDS011;8604;48.148;-1.786;2023-07-16T07:04:09;20.90;;;10.53;;
16975;SDS011;8604;48.148;-1.786;2023-07-16T07:06:37;20.00;;;10.07;;
16975;SDS011;8604;48.148;-1.786;2023-07-16T07:09:06;17.40;;;9.33;;
16975;SDS011;8604;48.148;-1.786;2023-07-16T07:11:35;16.83;;;9.50;;
16975;SDS011;8604;48.148;-1.786;2023-07-16T07:14:04;15.40;;;8.17;;
16975;SDS011;8604;48.148;-1.786;2023-07-16T07:16:36;15.63;;;7.77;;
16975;SDS011;8604;48.148;-1.786;2023-07-16T07:19:06;16.27;;;7.70;;
16975;SDS011;8604;48.148;-1.786;2023-07-16T07:21:35;13.50;;;7.07;;
16975;SDS011;8604;48.148;-1.786;2023-07-16T07:24:04;14.33;;;6.70;;
16975;SDS011;8604;48.148;-1.786;2023-07-16T07:26:32;14.03;;;6.20;;
16975;SDS011;8604;48.148;-1.786;2023-07-16T07:29:00;12.00;;;6.20;;
16975;SDS011;8604;48.148;-1.786;2023-07-16T07:31:30;16.40;;;6.20;;
16975;SDS011;8604;48.148;-1.786;2023-07-16T07:33:58;11.37;;;6.23;;
16975;SDS011;8604;48.148;-1.786;2023-07-16T07:36:27;11.90;;;5.80;;
16975;SDS011;8604;48.148;-1.786;2023-07-16T07:38:56;17.83;;;6.57;;
16975;SDS011;8604;48.148;-1.786;2023-07-16T07:41:24;12.63;;;5.60;;
16975;SDS011;8604;48.148;-1.786;2023-07-16T07:43:52;12.70;;;5.37;;
16975;SDS011;8604;48.148;-1.786;2023-07-16T07:46:21;10.73;;;4.97;;
16975;SDS011;8604;48.148;-1.786;2023-07-16T07:48:50;11.27;;;5.03;;
16975;SDS011;8604;48.148;-1.786;2023-07-16T07:51:20;12.77;;;4.93;;
16975;SDS011;8604;48.148;-1.786;2023-07-16T07:53:48;11.93;;;5.20;;
16975;SDS011;8604;48.148;-1.786;2023-07-16T07:56:17;10.90;;;4.33;;
16975;SDS011;8604;48.148;-1.786;2023-07-16T07:58:45;12.80;;;4.90;;
16975;SDS011;8604;48.148;-1.786;2023-07-16T08:01:13;10.70;;;4.40;;
16975;SDS011;8604;48.148;-1.786;2023-07-16T08:03:41;8.40;;;3.60;;
16975;SDS011;8604;48.148;-1.786;2023-07-16T08:06:11;8.07;;;3.60;;
16975;SDS011;8604;48.148;-1.786;2023-07-16T08:08:40;7.17;;;3.60;;
16975;SDS011;8604;48.148;-1.786;2023-07-16T08:11:09;8.77;;;3.80;;
16975;SDS011;8604;48.148;-1.786;2023-07-16T08:13:37;7.97;;;3.43;;
16975;SDS011;8604;48.148;-1.786;2023-07-16T08:16:05;6.10;;;3.37;;
16975;SDS011;8604;48.148;-1.786;2023-07-16T08:18:36;6.70;;;3.17;;
16975;SDS011;8604;48.148;-1.786;2023-07-16T08:21:04;7.13;;;3.20;;
16975;SDS011;8604;48.148;-1.786;2023-07-16T08:23:34;7.63;;;3.60;;
16975;SDS011;8604;48.148;-1.786;2023-07-16T08:26:02;6.53;;;3.47;;
16975;SDS011;8604;48.148;-1.786;2023-07-16T08:28:30;7.13;;;3.20;;
16975;SDS011;8604;48.148;-1.786;2023-07-16T08:30:59;10.97;;;3.77;;
16975;SDS011;8604;48.148;-1.786;2023-07-16T08:33:27;7.63;;;3.87;;
16975;SDS011;8604;48.148;-1.786;2023-07-16T08:35:55;8.57;;;3.60;;
16975;SDS011;8604;48.148;-1.786;2023-07-16T08:38:24;7.93;;;3.97;;
16975;SDS011;8604;48.148;-1.786;2023-07-16T08:40:53;9.73;;;3.90;;
16975;SDS011;8604;48.148;-1.786;2023-07-16T08:43:21;9.37;;;3.83;;
16975;SDS011;8604;48.148;-1.786;2023-07-16T08:45:49;9.97;;;4.00;;
16975;SDS011;8604;48.148;-1.786;2023-07-16T08:48:18;8.50;;;4.10;;
16975;SDS011;8604;48.148;-1.786;2023-07-16T08:50:47;7.97;;;3.70;;
16975;SDS011;8604;48.148;-1.786;2023-07-16T08:53:16;10.03;;;4.00;;
16975;SDS011;8604;48.148;-1.786;2023-07-16T08:55:45;8.63;;;3.73;;
16975;SDS011;8604;48.148;-1.786;2023-07-16T08:58:19;8.43;;;4.00;;
16975;SDS011;8604;48.148;-1.786;2023-07-16T09:00:51;9.63;;;3.80;;
16975;SDS011;8604;48.148;-1.786;2023-07-16T09:03:19;8.60;;;4.00;;
16975;SDS011;8604;48.148;-1.786;2023-07-16T09:05:48;7.93;;;3.40;;
16975;SDS011;8604;48.148;-1.786;2023-07-16T09:08:16;10.87;;;3.80;;
16975;SDS011;8604;48.148;-1.786;2023-07-16T09:10:52;8.47;;;3.87;;
16975;SDS011;8604;48.148;-1.786;2023-07-16T09:13:22;9.47;;;4.00;;
16975;SDS011;8604;48.148;-1.786;2023-07-16T09:15:54;6.73;;;2.80;;
16975;SDS011;8604;48.148;-1.786;2023-07-16T09:18:24;6.70;;;3.47;;
16975;SDS011;8604;48.148;-1.786;2023-07-16T09:20:56;8.53;;;3.27;;
16975;SDS011;8604;48.148;-1.786;2023-07-16T09:23:27;8.27;;;3.77;;
16975;SDS011;8604;48.148;-1.786;2023-07-16T09:25:55;9.00;;;3.53;;
16975;SDS011;8604;48.148;-1.786;2023-07-16T09:28:25;6.53;;;2.70;;
16975;SDS011;8604;48.148;-1.786;2023-07-16T09:30:54;9.10;;;2.80;;
16975;SDS011;8604;48.148;-1.786;2023-07-16T09:33:22;6.07;;;2.67;;
16975;SDS011;8604;48.148;-1.786;2023-07-16T09:35:52;7.07;;;2.50;;
16975;SDS011;8604;48.148;-1.786;2023-07-16T09:38:21;6.43;;;2.37;;
16975;SDS011;8604;48.148;-1.786;2023-07-16T09:40:51;7.50;;;3.10;;
16975;SDS011;8604;48.148;-1.786;2023-07-16T09:43:20;6.90;;;3.40;;
16975;SDS011;8604;48.148;-1.786;2023-07-16T09:45:50;7.87;;;3.00;;
16975;SDS011;8604;48.148;-1.786;2023-07-16T09:48:18;8.80;;;3.27;;
16975;SDS011;8604;48.148;-1.786;2023-07-16T09:50:49;8.67;;;3.67;;
16975;SDS011;8604;48.148;-1.786;2023-07-16T09:53:20;9.67;;;3.80;;
16975;SDS011;8604;48.148;-1.786;2023-07-16T09:55:51;9.47;;;3.80;;
16975;SDS011;8604;48.148;-1.786;2023-07-16T09:58:21;8.27;;;3.80;;
16975;SDS011;8604;48.148;-1.786;2023-07-16T10:00:52;7.93;;;4.03;;
16975;SDS011;8604;48.148;-1.786;2023-07-16T10:03:20;8.10;;;3.90;;
16975;SDS011;8604;48.148;-1.786;2023-07-16T10:05:49;9.20;;;4.33;;
16975;SDS011;8604;48.148;-1.786;2023-07-16T10:08:19;8.80;;;4.03;;
16975;SDS011;8604;48.148;-1.786;2023-07-16T10:10:48;8.20;;;3.93;;
16975;SDS011;8604;48.148;-1.786;2023-07-16T10:13:23;8.20;;;3.33;;
16975;SDS011;8604;48.148;-1.786;2023-07-16T10:15:53;7.63;;;3.77;;
16975;SDS011;8604;48.148;-1.786;2023-07-16T10:18:24;9.50;;;4.00;;
16975;SDS011;8604;48.148;-1.786;2023-07-16T10:20:54;9.70;;;7.10;;
16975;SDS011;8604;48.148;-1.786;2023-07-16T10:23:35;9.77;;;4.83;;
16975;SDS011;8604;48.148;-1.786;2023-07-16T10:26:06;8.50;;;4.87;;
16975;SDS011;8604;48.148;-1.786;2023-07-16T10:28:36;6.03;;;2.43;;
16975;SDS011;8604;48.148;-1.786;2023-07-16T10:31:06;4.67;;;1.90;;
16975;SDS011;8604;48.148;-1.786;2023-07-16T10:33:55;6.57;;;1.90;;
16975;SDS011;8604;48.148;-1.786;2023-07-16T10:36:28;6.00;;;2.30;;
16975;SDS011;8604;48.148;-1.786;2023-07-16T10:39:01;4.97;;;2.10;;
16975;SDS011;8604;48.148;-1.786;2023-07-16T10:41:34;5.60;;;2.00;;
16975;SDS011;8604;48.148;-1.786;2023-07-16T10:44:02;2.37;;;1.30;;
16975;SDS011;8604;48.148;-1.786;2023-07-16T10:46:32;4.13;;;2.10;;
16975;SDS011;8604;48.148;-1.786;2023-07-16T10:49:01;2.83;;;1.10;;
16975;SDS011;8604;48.148;-1.786;2023-07-16T10:51:30;3.60;;;1.23;;
16975;SDS011;8604;48.148;-1.786;2023-07-16T10:53:58;2.60;;;1.17;;
16975;SDS011;8604;48.148;-1.786;2023-07-16T10:56:27;2.73;;;1.13;;
16975;SDS011;8604;48.148;-1.786;2023-07-16T10:58:55;2.97;;;1.37;;
16975;SDS011;8604;48.148;-1.786;2023-07-16T11:01:23;4.13;;;1.43;;
16975;SDS011;8604;48.148;-1.786;2023-07-16T11:03:53;3.00;;;1.47;;
16975;SDS011;8604;48.148;-1.786;2023-07-16T11:06:28;4.50;;;1.50;;
16975;SDS011;8604;48.148;-1.786;2023-07-16T11:09:05;4.13;;;1.40;;
16975;SDS011;8604;48.148;-1.786;2023-07-16T11:11:34;4.20;;;1.53;;
16975;SDS011;8604;48.148;-1.786;2023-07-16T11:14:03;3.37;;;1.30;;
16975;SDS011;8604;48.148;-1.786;2023-07-16T11:16:35;3.07;;;1.40;;
16975;SDS011;8604;48.148;-1.786;2023-07-16T11:19:06;3.60;;;1.50;;
16975;SDS011;8604;48.148;-1.786;2023-07-16T11:21:35;3.83;;;1.30;;
16975;SDS011;8604;48.148;-1.786;2023-07-16T11:24:07;3.17;;;1.27;;
16975;SDS011;8604;48.148;-1.786;2023-07-16T11:26:36;2.23;;;1.30;;
16975;SDS011;8604;48.148;-1.786;2023-07-16T11:29:12;5.40;;;1.57;;
16975;SDS011;8604;48.148;-1.786;2023-07-16T11:31:40;3.77;;;1.57;;
16975;SDS011;8604;48.148;-1.786;2023-07-16T11:34:13;3.07;;;1.27;;
16975;SDS011;8604;48.148;-1.786;2023-07-16T11:36:41;2.70;;;1.10;;
16975;SDS011;8604;48.148;-1.786;2023-07-16T11:39:10;2.97;;;1.00;;
16975;SDS011;8604;48.148;-1.786;2023-07-16T11:41:39;2.27;;;0.90;;
16975;SDS011;8604;48.148;-1.786;2023-07-16T11:44:09;3.27;;;1.20;;
16975;SDS011;8604;48.148;-1.786;2023-07-16T11:46:39;3.53;;;1.20;;
16975;SDS011;8604;48.148;-1.786;2023-07-16T11:49:08;1.90;;;0.90;;
16975;SDS011;8604;48.148;-1.786;2023-07-16T11:51:38;2.67;;;1.10;;
16975;SDS011;8604;48.148;-1.786;2023-07-16T11:54:06;2.40;;;1.10;;
16975;SDS011;8604;48.148;-1.786;2023-07-16T11:56:35;3.58;;;1.30;;
16975;SDS011;8604;48.148;-1.786;2023-07-16T11:59:04;2.67;;;1.17;;
16975;SDS011;8604;48.148;-1.786;2023-07-16T12:01:32;2.30;;;1.20;;
16975;SDS011;8604;48.148;-1.786;2023-07-16T12:04:01;4.23;;;1.10;;
16975;SDS011;8604;48.148;-1.786;2023-07-16T12:06:29;2.85;;;1.10;;
16975;SDS011;8604;48.148;-1.786;2023-07-16T12:08:59;2.77;;;1.20;;
16975;SDS011;8604;48.148;-1.786;2023-07-16T12:11:27;3.37;;;1.20;;
16975;SDS011;8604;48.148;-1.786;2023-07-16T12:13:55;3.60;;;1.40;;
16975;SDS011;8604;48.148;-1.786;2023-07-16T12:16:24;2.90;;;1.30;;
16975;SDS011;8604;48.148;-1.786;2023-07-16T12:18:52;4.30;;;1.40;;
16975;SDS011;8604;48.148;-1.786;2023-07-16T12:21:20;2.47;;;1.13;;
16975;SDS011;8604;48.148;-1.786;2023-07-16T12:23:49;4.57;;;1.50;;
16975;SDS011;8604;48.148;-1.786;2023-07-16T12:26:19;5.20;;;1.70;;
16975;SDS011;8604;48.148;-1.786;2023-07-16T12:28:47;3.83;;;1.33;;
16975;SDS011;8604;48.148;-1.786;2023-07-16T12:31:16;3.58;;;1.52;;
16975;SDS011;8604;48.148;-1.786;2023-07-16T12:33:44;4.43;;;1.65;;
16975;SDS011;8604;48.148;-1.786;2023-07-16T12:36:13;4.00;;;1.60;;
16975;SDS011;8604;48.148;-1.786;2023-07-16T12:38:42;5.17;;;1.40;;
16975;SDS011;8604;48.148;-1.786;2023-07-16T12:41:11;3.70;;;1.50;;
16975;SDS011;8604;48.148;-1.786;2023-07-16T12:43:43;3.90;;;1.42;;
16975;SDS011;8604;48.148;-1.786;2023-07-16T12:46:11;3.65;;;1.63;;
16975;SDS011;8604;48.148;-1.786;2023-07-16T12:48:40;4.10;;;1.83;;
16975;SDS011;8604;48.148;-1.786;2023-07-16T12:51:08;3.92;;;1.70;;
16975;SDS011;8604;48.148;-1.786;2023-07-16T12:53:37;4.88;;;1.90;;
16975;SDS011;8604;48.148;-1.786;2023-07-16T12:56:10;3.80;;;1.90;;
16975;SDS011;8604;48.148;-1.786;2023-07-16T12:58:38;3.58;;;1.70;;
16975;SDS011;8604;48.148;-1.786;2023-07-16T13:01:08;3.60;;;1.73;;
16975;SDS011;8604;48.148;-1.786;2023-07-16T13:03:37;6.87;;;2.00;;
16975;SDS011;8604;48.148;-1.786;2023-07-16T13:06:05;4.20;;;1.80;;
16975;SDS011;8604;48.148;-1.786;2023-07-16T13:08:34;4.57;;;2.00;;
16975;SDS011;8604;48.148;-1.786;2023-07-16T13:11:02;5.40;;;1.80;;
16975;SDS011;8604;48.148;-1.786;2023-07-16T13:13:31;4.77;;;1.97;;
16975;SDS011;8604;48.148;-1.786;2023-07-16T13:15:59;5.43;;;2.00;;
16975;SDS011;8604;48.148;-1.786;2023-07-16T13:18:29;4.07;;;1.73;;
16975;SDS011;8604;48.148;-1.786;2023-07-16T13:20:58;7.72;;;2.20;;
16975;SDS011;8604;48.148;-1.786;2023-07-16T13:23:26;4.70;;;2.00;;
16975;SDS011;8604;48.148;-1.786;2023-07-16T13:25:54;6.40;;;2.20;;
16975;SDS011;8604;48.148;-1.786;2023-07-16T13:28:23;5.30;;;2.38;;
16975;SDS011;8604;48.148;-1.786;2023-07-16T13:30:51;3.55;;;2.15;;
16975;SDS011;8604;48.148;-1.786;2023-07-16T13:33:26;4.05;;;2.38;;
16975;SDS011;8604;48.148;-1.786;2023-07-16T13:35:57;4.47;;;2.33;;
16975;SDS011;8604;48.148;-1.786;2023-07-16T13:38:28;6.37;;;2.60;;
16975;SDS011;8604;48.148;-1.786;2023-07-16T13:40:57;4.83;;;2.57;;
16975;SDS011;8604;48.148;-1.786;2023-07-16T13:43:25;5.80;;;2.80;;
16975;SDS011;8604;48.148;-1.786;2023-07-16T13:45:53;6.37;;;2.60;;
16975;SDS011;8604;48.148;-1.786;2023-07-16T13:48:22;6.60;;;3.00;;
16975;SDS011;8604;48.148;-1.786;2023-07-16T13:50:51;6.30;;;2.90;;
16975;SDS011;8604;48.148;-1.786;2023-07-16T13:53:20;6.30;;;3.23;;
16975;SDS011;8604;48.148;-1.786;2023-07-16T13:55:48;5.60;;;2.90;;
16975;SDS011;8604;48.148;-1.786;2023-07-16T13:58:17;8.00;;;3.30;;
16975;SDS011;8604;48.148;-1.786;2023-07-16T14:00:46;7.77;;;3.50;;
16975;SDS011;8604;48.148;-1.786;2023-07-16T14:03:14;8.77;;;3.20;;
16975;SDS011;8604;48.148;-1.786;2023-07-16T14:05:42;6.90;;;3.30;;
16975;SDS011;8604;48.148;-1.786;2023-07-16T14:08:14;6.97;;;3.73;;
16975;SDS011;8604;48.148;-1.786;2023-07-16T14:10:42;7.13;;;3.60;;
16975;SDS011;8604;48.148;-1.786;2023-07-16T14:13:17;8.37;;;3.77;;
16975;SDS011;8604;48.148;-1.786;2023-07-16T14:15:45;10.33;;;4.23;;
16975;SDS011;8604;48.148;-1.786;2023-07-16T14:18:13;10.50;;;4.53;;
16975;SDS011;8604;48.148;-1.786;2023-07-16T14:20:42;6.60;;;3.70;;
16975;SDS011;8604;48.148;-1.786;2023-07-16T14:23:10;6.37;;;3.70;;
16975;SDS011;8604;48.148;-1.786;2023-07-16T14:25:40;6.63;;;3.90;;
16975;SDS011;8604;48.148;-1.786;2023-07-16T14:28:08;10.13;;;4.30;;
16975;SDS011;8604;48.148;-1.786;2023-07-16T14:30:37;10.57;;;4.57;;
16975;SDS011;8604;48.148;-1.786;2023-07-16T14:33:05;8.20;;;3.70;;
16975;SDS011;8604;48.148;-1.786;2023-07-16T14:35:33;8.77;;;4.40;;
16975;SDS011;8604;48.148;-1.786;2023-07-16T14:38:04;7.13;;;3.80;;
16975;SDS011;8604;48.148;-1.786;2023-07-16T14:40:33;8.27;;;4.13;;
16975;SDS011;8604;48.148;-1.786;2023-07-16T14:43:03;7.17;;;4.20;;
16975;SDS011;8604;48.148;-1.786;2023-07-16T14:45:32;9.03;;;4.47;;